createdAt,value
2022-11-27T00:00:08.762Z,11.43
2022-11-27T00:02:40.917Z,11.00
2022-11-27T00:05:09.141Z,11.88
2022-11-27T00:07:37.802Z,12.27
2022-11-27T00:10:06.477Z,10.55
2022-11-27T00:12:33.759Z,10.00
2022-11-27T00:15:01.069Z,10.13
2022-11-27T00:17:28.448Z,8.90
2022-11-27T00:19:55.723Z,9.60
2022-11-27T00:22:23.037Z,9.40
2022-11-27T00:24:51.596Z,9.63
2022-11-27T00:27:18.828Z,9.50
2022-11-27T00:29:46.073Z,9.85
2022-11-27T00:32:13.565Z,9.68
2022-11-27T00:34:41.070Z,9.35
2022-11-27T00:37:08.490Z,12.10
2022-11-27T00:39:35.795Z,10.47
2022-11-27T00:42:04.399Z,9.80
2022-11-27T00:44:31.668Z,11.75
2022-11-27T00:46:58.970Z,10.10
2022-11-27T00:49:26.444Z,19.98
2022-11-27T00:51:53.690Z,8.93
2022-11-27T00:54:22.847Z,9.20
2022-11-27T00:56:50.259Z,9.30
2022-11-27T00:59:18.854Z,8.75
2022-11-27T01:01:46.999Z,9.02
2022-11-27T01:04:15.959Z,11.03
2022-11-27T01:06:44.445Z,9.43
2022-11-27T01:09:12.274Z,9.23
2022-11-27T01:11:40.146Z,9.52
2022-11-27T01:14:11.645Z,10.18
2022-11-27T01:16:43.120Z,9.93
2022-11-27T01:19:11.952Z,9.63
2022-11-27T01:21:39.389Z,8.35
2022-11-27T01:24:07.935Z,8.57
2022-11-27T01:26:35.243Z,9.15
2022-11-27T01:29:02.616Z,9.30
2022-11-27T01:31:32.365Z,9.20
2022-11-27T01:34:04.314Z,9.00
2022-11-27T01:36:32.086Z,8.45
2022-11-27T01:38:59.544Z,8.82
2022-11-27T01:41:28.399Z,8.47
2022-11-27T01:43:58.295Z,9.05
2022-11-27T01:46:30.466Z,8.45
2022-11-27T01:49:03.869Z,7.78
2022-11-27T01:51:31.522Z,9.00
2022-11-27T01:53:59.199Z,9.10
2022-11-27T01:56:27.879Z,8.88
2022-11-27T01:58:56.875Z,9.40
2022-11-27T02:01:26.091Z,8.63
2022-11-27T02:03:53.935Z,8.82
2022-11-27T02:06:22.580Z,8.63
2022-11-27T02:08:49.864Z,8.93
2022-11-27T02:11:27.171Z,9.52
2022-11-27T02:14:03.236Z,8.43
2022-11-27T02:16:36.708Z,9.15
2022-11-27T02:19:12.767Z,9.13
2022-11-27T02:21:47.958Z,8.73
2022-11-27T02:24:56.328Z,8.73
2022-11-27T02:27:56.418Z,8.95
2022-11-27T02:30:25.099Z,9.40
2022-11-27T02:32:59.051Z,8.43
2022-11-27T02:35:32.095Z,9.50
2022-11-27T02:38:02.533Z,8.93
2022-11-27T02:44:23.532Z,9.73
2022-11-27T02:46:51.002Z,9.95
2022-11-27T02:49:19.947Z,9.90
2022-11-27T02:51:53.279Z,9.88
2022-11-27T02:54:24.970Z,9.43
2022-11-27T02:56:53.614Z,10.52
2022-11-27T02:59:23.212Z,10.05
2022-11-27T03:01:53.399Z,9.88
2022-11-27T03:04:26.384Z,9.88
2022-11-27T03:06:55.829Z,10.07
2022-11-27T03:09:27.695Z,9.95
2022-11-27T03:11:55.412Z,10.57
2022-11-27T03:14:24.815Z,10.20
2022-11-27T03:17:02.670Z,10.65
2022-11-27T03:19:38.270Z,10.20
2022-11-27T03:22:05.619Z,9.88
2022-11-27T03:24:35.585Z,11.38
2022-11-27T03:27:04.647Z,10.65
2022-11-27T03:29:37.500Z,10.95
2022-11-27T03:32:05.541Z,10.37
2022-11-27T03:34:33.449Z,10.45
2022-11-27T03:37:01.032Z,10.48
2022-11-27T03:39:30.217Z,10.65
2022-11-27T03:42:09.019Z,10.20
2022-11-27T03:44:43.254Z,10.27
2022-11-27T03:47:19.151Z,10.90
2022-11-27T03:50:02.499Z,11.30
2022-11-27T03:52:42.482Z,9.75
2022-11-27T03:55:14.979Z,10.00
2022-11-27T03:57:50.500Z,10.50
2022-11-27T04:00:19.541Z,10.68
2022-11-27T04:02:49.826Z,10.77
2022-11-27T04:05:18.166Z,10.77
2022-11-27T04:07:45.441Z,9.82
2022-11-27T04:10:14.189Z,10.13
2022-11-27T04:12:41.507Z,11.00
2022-11-27T04:15:09.528Z,10.10
2022-11-27T04:17:38.091Z,10.68
2022-11-27T04:20:07.002Z,9.00
2022-11-27T04:22:34.219Z,10.20
2022-11-27T04:25:01.626Z,9.80
2022-11-27T04:27:28.853Z,10.02
2022-11-27T04:29:56.045Z,10.57
2022-11-27T04:32:23.249Z,9.93
2022-11-27T04:34:51.739Z,9.77
2022-11-27T04:37:18.954Z,9.70
2022-11-27T04:39:46.158Z,9.73
2022-11-27T04:42:13.343Z,9.40
2022-11-27T04:44:40.715Z,9.15
2022-11-27T04:47:08.022Z,9.50
2022-11-27T04:49:35.238Z,9.88
2022-11-27T04:52:04.384Z,9.52
2022-11-27T04:54:31.604Z,10.18
2022-11-27T04:56:58.845Z,10.13
2022-11-27T04:59:26.098Z,9.83
2022-11-27T05:01:53.319Z,11.10
2022-11-27T05:04:21.114Z,10.35
2022-11-27T05:06:48.692Z,8.88
2022-11-27T05:09:18.724Z,9.68
2022-11-27T05:11:46.131Z,9.50
2022-11-27T05:14:20.467Z,9.30
2022-11-27T05:16:50.121Z,9.25
2022-11-27T05:19:18.943Z,8.52
2022-11-27T05:21:47.221Z,8.98
2022-11-27T05:24:15.440Z,8.33
2022-11-27T05:26:44.107Z,9.15
2022-11-27T05:29:12.482Z,8.80
2022-11-27T05:31:40.192Z,8.48
2022-11-27T05:34:08.255Z,8.73
2022-11-27T05:36:35.729Z,8.20
2022-11-27T05:39:06.405Z,9.35
2022-11-27T05:41:34.057Z,8.63
2022-11-27T05:44:02.690Z,8.40
2022-11-27T05:46:30.165Z,8.70
2022-11-27T05:48:57.488Z,9.03
2022-11-27T05:51:25.057Z,9.23
2022-11-27T05:53:52.334Z,9.00
2022-11-27T05:56:20.005Z,9.10
2022-11-27T05:58:48.364Z,8.57
2022-11-27T06:01:18.495Z,9.27
2022-11-27T06:03:46.010Z,9.13
2022-11-27T06:06:15.658Z,8.55
2022-11-27T06:08:43.531Z,9.55
2022-11-27T06:11:12.686Z,9.38
2022-11-27T06:13:40.397Z,8.77
2022-11-27T06:16:09.256Z,9.25
2022-11-27T06:18:37.970Z,8.57
2022-11-27T06:21:09.652Z,8.52
2022-11-27T06:23:37.074Z,8.23
2022-11-27T06:26:12.785Z,8.50
2022-11-27T06:28:40.908Z,8.27
2022-11-27T06:31:14.472Z,8.73
2022-11-27T06:33:46.606Z,9.02
2022-11-27T06:36:14.411Z,8.45
2022-11-27T06:38:41.772Z,8.43
2022-11-27T06:41:11.519Z,9.02
2022-11-27T06:43:39.260Z,9.77
2022-11-27T06:46:08.421Z,9.32
2022-11-27T06:48:35.693Z,9.48
2022-11-27T06:51:06.454Z,9.40
2022-11-27T06:53:35.653Z,9.07
2022-11-27T06:56:02.949Z,8.90
2022-11-27T06:58:31.361Z,8.82
2022-11-27T07:00:59.203Z,8.43
2022-11-27T07:03:27.012Z,8.63
2022-11-27T07:05:54.379Z,8.63
2022-11-27T07:08:22.961Z,9.45
2022-11-27T07:10:50.183Z,9.60
2022-11-27T07:13:17.439Z,10.05
2022-11-27T07:15:44.668Z,10.30
2022-11-27T07:18:12.158Z,9.93
2022-11-27T07:20:39.340Z,9.90
2022-11-27T07:23:06.561Z,11.02
2022-11-27T07:25:37.402Z,12.75
2022-11-27T07:28:04.664Z,11.50
2022-11-27T07:30:31.881Z,10.02
2022-11-27T07:32:59.106Z,10.18
2022-11-27T07:35:26.365Z,10.40
2022-11-27T07:37:53.575Z,10.70
2022-11-27T07:40:20.807Z,10.23
2022-11-27T07:42:49.336Z,9.82
2022-11-27T07:45:17.968Z,9.82
2022-11-27T07:47:45.583Z,10.85
2022-11-27T07:50:12.812Z,10.43
2022-11-27T07:52:42.210Z,9.30
2022-11-27T07:55:10.364Z,9.60
2022-11-27T07:57:37.601Z,9.65
2022-11-27T08:00:07.627Z,9.35
2022-11-27T08:02:34.868Z,9.60
2022-11-27T08:05:02.125Z,9.43
2022-11-27T08:07:29.742Z,8.98
2022-11-27T08:10:00.032Z,9.63
2022-11-27T08:12:27.336Z,10.20
2022-11-27T08:14:54.585Z,9.95
2022-11-27T08:17:23.121Z,10.07
2022-11-27T08:19:50.347Z,9.63
2022-11-27T08:22:19.524Z,9.93
2022-11-27T08:24:48.036Z,10.20
2022-11-27T08:27:16.402Z,10.70
2022-11-27T08:29:43.779Z,9.57
2022-11-27T08:32:11.035Z,10.38
2022-11-27T08:34:39.988Z,10.45
2022-11-27T08:37:08.076Z,10.20
2022-11-27T08:39:35.700Z,9.77
2022-11-27T08:42:02.994Z,9.93
2022-11-27T08:44:30.234Z,9.77
2022-11-27T08:46:57.416Z,10.35
2022-11-27T08:49:24.790Z,9.70
2022-11-27T08:51:53.337Z,9.30
2022-11-27T08:54:20.576Z,9.80
2022-11-27T08:56:47.798Z,10.60
2022-11-27T08:59:15.035Z,9.43
2022-11-27T09:01:42.231Z,9.60
2022-11-27T09:04:09.622Z,9.32
2022-11-27T09:06:36.956Z,9.97
2022-11-27T09:09:06.070Z,8.23
2022-11-27T09:11:35.012Z,8.48
2022-11-27T09:14:03.901Z,9.13
2022-11-27T09:16:31.555Z,9.43
2022-11-27T09:18:58.868Z,8.80
2022-11-27T09:21:28.315Z,7.93
2022-11-27T09:23:56.212Z,8.55
2022-11-27T09:26:25.838Z,8.32
2022-11-27T09:28:54.538Z,7.97
2022-11-27T09:31:22.813Z,7.23
2022-11-27T09:33:50.291Z,8.20
2022-11-27T09:36:19.514Z,7.90
2022-11-27T09:38:47.060Z,8.45
2022-11-27T09:41:38.598Z,8.48
2022-11-27T09:44:23.147Z,8.63
2022-11-27T09:46:51.762Z,9.40
2022-11-27T09:49:24.460Z,9.77
2022-11-27T09:51:56.290Z,8.63
2022-11-27T09:54:25.946Z,8.40
2022-11-27T09:56:55.996Z,8.23
2022-11-27T09:59:29.658Z,8.05
2022-11-27T10:02:37.157Z,8.35
2022-11-27T10:05:35.510Z,8.43
2022-11-27T10:08:44.278Z,8.88
2022-11-27T10:11:24.753Z,8.47
2022-11-27T10:14:29.899Z,7.85
2022-11-27T10:17:11.104Z,8.18
2022-11-27T10:20:04.374Z,8.30
2022-11-27T10:22:42.644Z,7.43
2022-11-27T10:25:17.090Z,7.87
2022-11-27T10:27:48.780Z,8.07
2022-11-27T10:30:20.570Z,7.93
2022-11-27T10:32:56.061Z,7.65
2022-11-27T10:35:25.894Z,8.15
2022-11-27T10:37:58.133Z,7.73
2022-11-27T10:40:31.536Z,8.00
2022-11-27T10:43:04.566Z,7.63
2022-11-27T10:45:40.335Z,7.97
2022-11-27T10:48:07.598Z,7.75
2022-11-27T10:50:34.871Z,7.83
2022-11-27T10:53:06.301Z,8.25
2022-11-27T10:55:48.573Z,7.78
2022-11-27T10:58:19.328Z,8.07
2022-11-27T11:00:47.983Z,7.82
2022-11-27T11:03:17.533Z,7.40
2022-11-27T11:06:19.359Z,8.20
2022-11-27T11:08:44.399Z,7.43
2022-11-27T11:11:11.897Z,7.75
2022-11-27T11:13:47.014Z,7.32
2022-11-27T11:16:24.376Z,7.70
2022-11-27T11:18:53.106Z,7.43
2022-11-27T11:21:27.634Z,7.18
2022-11-27T11:23:59.889Z,7.10
2022-11-27T11:26:30.718Z,7.45
2022-11-27T11:28:59.911Z,7.63
2022-11-27T11:31:36.416Z,7.43
2022-11-27T11:34:06.141Z,7.53
2022-11-27T11:36:33.866Z,7.25
2022-11-27T11:39:01.138Z,7.40
2022-11-27T11:41:37.379Z,7.80
2022-11-27T11:44:05.237Z,7.30
2022-11-27T11:46:36.395Z,7.18
2022-11-27T11:49:08.275Z,7.15
2022-11-27T11:51:55.809Z,7.15
2022-11-27T11:54:38.327Z,7.47
2022-11-27T11:57:22.450Z,7.32
2022-11-27T11:59:58.926Z,7.18
2022-11-27T12:02:42.695Z,7.15
2022-11-27T12:05:20.373Z,7.25
2022-11-27T12:08:07.936Z,6.57
2022-11-27T12:10:48.884Z,7.28
2022-11-27T12:13:33.173Z,7.03
2022-11-27T12:16:07.498Z,6.50
2022-11-27T12:18:46.920Z,6.28
2022-11-27T12:21:15.394Z,7.20
2022-11-27T12:24:00.871Z,6.88
2022-11-27T12:26:40.784Z,7.22
2022-11-27T12:29:33.695Z,7.50
2022-11-27T12:32:25.989Z,8.20
2022-11-27T12:35:06.950Z,7.43
2022-11-27T12:37:46.658Z,7.90
2022-11-27T12:40:32.437Z,7.38
2022-11-27T12:43:07.650Z,7.18
2022-11-27T12:45:38.486Z,7.72
2022-11-27T12:48:12.585Z,6.80
2022-11-27T12:50:45.371Z,6.80
2022-11-27T12:53:24.589Z,5.90
2022-11-27T12:56:03.244Z,6.85
2022-11-27T12:58:35.535Z,6.82
2022-11-27T13:01:09.769Z,6.83
2022-11-27T13:03:43.963Z,6.60
2022-11-27T13:06:16.221Z,6.80
2022-11-27T13:08:52.821Z,6.60
2022-11-27T13:11:26.308Z,6.60
2022-11-27T13:13:58.945Z,6.43
2022-11-27T13:16:30.460Z,6.40
2022-11-27T13:19:05.662Z,6.47
2022-11-27T13:21:35.606Z,5.88
2022-11-27T13:24:03.799Z,6.40
2022-11-27T13:26:35.001Z,6.40
2022-11-27T13:29:05.743Z,6.80
2022-11-27T13:31:37.460Z,7.00
2022-11-27T13:34:07.670Z,6.13
2022-11-27T13:36:39.358Z,6.32
2022-11-27T13:39:07.399Z,7.00
2022-11-27T13:41:39.866Z,6.43
2022-11-27T13:44:24.041Z,6.72
2022-11-27T13:46:54.798Z,6.30
2022-11-27T13:49:26.207Z,6.05
2022-11-27T13:52:06.604Z,6.43
2022-11-27T13:54:33.949Z,6.05
2022-11-27T13:57:11.130Z,6.35
2022-11-27T13:59:39.663Z,6.10
2022-11-27T14:02:08.861Z,5.90
2022-11-27T14:04:50.608Z,6.03
2022-11-27T14:07:24.221Z,6.38
2022-11-27T14:09:54.046Z,6.30
2022-11-27T14:12:24.230Z,6.20
2022-11-27T14:15:04.682Z,6.00
2022-11-27T14:17:37.676Z,5.87
2022-11-27T14:20:21.169Z,5.80
2022-11-27T14:23:11.183Z,6.07
2022-11-27T14:25:38.843Z,5.47
2022-11-27T14:28:15.082Z,6.30
2022-11-27T14:30:46.731Z,5.90
2022-11-27T14:33:18.552Z,6.07
2022-11-27T14:35:49.106Z,6.13
2022-11-27T14:38:17.766Z,6.60
2022-11-27T14:40:46.190Z,6.13
2022-11-27T14:43:18.010Z,5.83
2022-11-27T14:45:47.067Z,6.18
2022-11-27T14:48:20.764Z,6.40
2022-11-27T14:50:49.380Z,5.90
2022-11-27T14:53:19.270Z,6.38
2022-11-27T14:55:49.171Z,5.80
2022-11-27T14:58:20.435Z,6.25
2022-11-27T15:00:58.294Z,6.18
2022-11-27T15:03:26.717Z,6.28
2022-11-27T15:05:57.778Z,5.80
2022-11-27T15:08:27.363Z,6.00
2022-11-27T15:10:56.780Z,5.57
2022-11-27T15:13:26.984Z,5.38
2022-11-27T15:15:58.768Z,6.22
2022-11-27T15:18:28.013Z,5.75
2022-11-27T15:20:57.396Z,6.00
2022-11-27T15:23:28.221Z,6.43
2022-11-27T15:26:16.844Z,6.10
2022-11-27T15:28:52.887Z,6.90
2022-11-27T15:31:26.880Z,6.55
2022-11-27T15:33:59.500Z,6.93
2022-11-27T15:36:33.604Z,6.88
2022-11-27T15:39:23.303Z,6.57
2022-11-27T15:41:53.037Z,6.70
2022-11-27T15:44:20.424Z,6.47
2022-11-27T15:46:47.863Z,6.50
2022-11-27T15:49:15.571Z,6.35
2022-11-27T15:51:43.335Z,6.15
2022-11-27T15:54:10.549Z,7.00
2022-11-27T15:56:39.076Z,6.03
2022-11-27T15:59:06.391Z,6.20
2022-11-27T16:01:33.687Z,6.15
2022-11-27T16:04:00.946Z,5.97
2022-11-27T16:06:28.149Z,5.95
2022-11-27T16:08:55.790Z,6.60
2022-11-27T16:11:23.640Z,6.77
2022-11-27T16:13:52.198Z,6.50
2022-11-27T16:16:19.657Z,6.97
2022-11-27T16:18:47.138Z,6.95
2022-11-27T16:21:16.444Z,6.60
2022-11-27T16:23:43.969Z,6.50
2022-11-27T16:26:11.844Z,6.57
2022-11-27T16:28:39.147Z,6.75
2022-11-27T16:31:10.815Z,7.18
2022-11-27T16:33:38.149Z,7.57
2022-11-27T16:36:06.997Z,7.93
2022-11-27T16:38:35.008Z,7.05
2022-11-27T16:41:05.364Z,7.18
2022-11-27T16:43:34.884Z,7.15
2022-11-27T16:46:05.670Z,7.55
2022-11-27T16:48:37.543Z,7.03
2022-11-27T16:51:05.507Z,7.85
2022-11-27T16:53:33.551Z,7.70
2022-11-27T16:56:00.822Z,7.85
2022-11-27T16:58:33.223Z,7.63
2022-11-27T17:01:03.808Z,7.63
2022-11-27T17:03:31.096Z,7.72
2022-11-27T17:05:59.663Z,7.45
2022-11-27T17:08:26.954Z,7.57
2022-11-27T17:10:54.174Z,8.05
2022-11-27T17:13:24.225Z,7.63
2022-11-27T17:15:52.869Z,8.10
2022-11-27T17:18:20.129Z,7.65
2022-11-27T17:20:47.688Z,7.65
2022-11-27T17:23:16.382Z,7.68
2022-11-27T17:25:43.645Z,7.70
2022-11-27T17:28:10.807Z,7.40
2022-11-27T17:30:39.538Z,7.53
2022-11-27T17:33:06.822Z,7.07
2022-11-27T17:35:34.016Z,7.80
2022-11-27T17:38:01.217Z,7.50
2022-11-27T17:40:30.645Z,7.60
2022-11-27T17:42:57.889Z,8.18
2022-11-27T17:45:25.328Z,7.88
2022-11-27T17:47:54.215Z,7.60
2022-11-27T17:50:21.683Z,7.20
2022-11-27T17:52:52.737Z,7.40
2022-11-27T17:55:20.173Z,7.57
2022-11-27T17:57:50.287Z,7.32
2022-11-27T18:00:18.661Z,7.30
2022-11-27T18:02:46.028Z,7.43
2022-11-27T18:05:14.477Z,7.70
2022-11-27T18:07:41.967Z,6.85
2022-11-27T18:10:10.756Z,7.68
2022-11-27T18:12:38.054Z,7.35
2022-11-27T18:15:09.535Z,7.93
2022-11-27T18:17:36.951Z,8.05
2022-11-27T18:20:05.837Z,8.05
2022-11-27T18:22:33.134Z,8.02
2022-11-27T18:25:00.372Z,8.60
2022-11-27T18:27:27.598Z,8.30
2022-11-27T18:29:54.812Z,8.07
2022-11-27T18:32:23.461Z,8.05
2022-11-27T18:34:53.048Z,8.10
2022-11-27T18:37:20.621Z,7.95
2022-11-27T18:39:47.972Z,7.83
2022-11-27T18:42:15.239Z,7.40
2022-11-27T18:44:45.040Z,7.53
2022-11-27T18:47:13.891Z,8.13
2022-11-27T18:49:43.686Z,8.73
2022-11-27T18:52:11.663Z,8.40
2022-11-27T18:54:39.388Z,8.32
2022-11-27T18:57:07.319Z,9.75
2022-11-27T18:59:35.022Z,8.63
2022-11-27T19:02:02.790Z,8.75
2022-11-27T19:04:30.142Z,8.60
2022-11-27T19:06:58.805Z,8.13
2022-11-27T19:09:26.369Z,9.23
2022-11-27T19:11:53.998Z,8.32
2022-11-27T19:14:21.260Z,8.32
2022-11-27T19:16:48.754Z,11.17
2022-11-27T19:22:11.187Z,10.65
2022-11-27T19:24:40.289Z,12.55
2022-11-27T19:27:07.666Z,16.80
2022-11-27T19:29:35.324Z,8.73
2022-11-27T19:32:02.931Z,10.95
2022-11-27T19:34:30.398Z,9.57
2022-11-27T19:37:00.516Z,10.13
2022-11-27T19:39:29.878Z,9.05
2022-11-27T19:41:58.028Z,9.30
2022-11-27T19:44:25.982Z,10.40
2022-11-27T19:46:53.301Z,8.27
2022-11-27T19:49:21.357Z,8.40
2022-11-27T19:51:49.667Z,7.97
2022-11-27T19:54:19.294Z,8.10
2022-11-27T19:56:47.921Z,9.05
2022-11-27T19:59:15.320Z,8.23
2022-11-27T20:01:42.933Z,7.63
2022-11-27T20:04:11.517Z,8.57
2022-11-27T20:06:39.664Z,9.00
2022-11-27T20:09:07.231Z,7.07
2022-11-27T20:11:37.704Z,8.98
2022-11-27T20:14:06.784Z,8.90
2022-11-27T20:16:35.761Z,8.32
2022-11-27T20:19:05.905Z,10.33
2022-11-27T20:21:35.491Z,8.00
2022-11-27T20:24:04.097Z,9.10
2022-11-27T20:26:31.431Z,8.38
2022-11-27T20:29:00.570Z,8.48
2022-11-27T20:31:31.190Z,9.97
2022-11-27T20:34:01.156Z,8.27
2022-11-27T20:36:29.938Z,8.35
2022-11-27T20:38:59.879Z,7.50
2022-11-27T20:41:28.491Z,8.60
2022-11-27T20:43:58.556Z,8.30
2022-11-27T20:46:26.244Z,8.00
2022-11-27T20:48:55.582Z,8.57
2022-11-27T20:51:30.684Z,7.20
2022-11-27T20:53:59.600Z,7.68
2022-11-27T20:56:28.089Z,8.13
2022-11-27T20:58:56.155Z,7.65
2022-11-27T21:01:26.082Z,7.57
2022-11-27T21:03:57.030Z,7.70
2022-11-27T21:06:26.407Z,7.82
2022-11-27T21:08:55.202Z,7.60
2022-11-27T21:11:25.295Z,7.70
2022-11-27T21:13:55.874Z,7.60
2022-11-27T21:16:24.959Z,8.77
2022-11-27T21:18:52.605Z,8.30
2022-11-27T21:21:21.186Z,7.90
2022-11-27T21:23:49.088Z,7.90
2022-11-27T21:26:18.564Z,7.35
2022-11-27T21:28:46.809Z,8.02
2022-11-27T21:31:19.294Z,8.02
2022-11-27T21:33:47.312Z,8.03
2022-11-27T21:36:14.937Z,8.35
2022-11-27T21:38:44.158Z,7.78
2022-11-27T21:41:17.321Z,7.88
2022-11-27T21:43:44.905Z,7.60
2022-11-27T21:46:14.740Z,8.80
2022-11-27T21:48:42.091Z,8.40
2022-11-27T21:51:12.676Z,8.73
2022-11-27T21:53:40.781Z,7.82
2022-11-27T21:56:11.434Z,8.45
2022-11-27T21:58:38.770Z,8.60
2022-11-27T22:01:08.978Z,7.70
2022-11-27T22:03:41.081Z,7.85
2022-11-27T22:06:15.102Z,7.88
2022-11-27T22:08:43.617Z,7.90
2022-11-27T22:11:14.067Z,8.60
2022-11-27T22:13:41.867Z,6.85
2022-11-27T22:16:10.828Z,8.60
2022-11-27T22:18:38.221Z,7.90
2022-11-27T22:21:07.333Z,8.55
2022-11-27T22:23:35.334Z,8.57
2022-11-27T22:26:03.797Z,8.32
2022-11-27T22:28:32.492Z,8.32
2022-11-27T22:30:59.796Z,7.72
2022-11-27T22:33:27.888Z,8.57
2022-11-27T22:35:55.119Z,8.63
2022-11-27T22:38:22.572Z,7.78
2022-11-27T22:40:49.844Z,7.25
2022-11-27T22:43:17.043Z,7.82
2022-11-27T22:45:47.869Z,8.27
2022-11-27T22:48:15.219Z,8.10
2022-11-27T22:50:42.593Z,9.23
2022-11-27T22:53:10.013Z,7.68
2022-11-27T22:55:38.256Z,8.15
2022-11-27T22:58:05.440Z,8.02
2022-11-27T23:00:34.041Z,8.20
2022-11-27T23:03:02.946Z,8.45
2022-11-27T23:05:30.653Z,8.70
2022-11-27T23:07:58.736Z,8.73
2022-11-27T23:10:26.333Z,8.75
2022-11-27T23:12:53.546Z,8.23
2022-11-27T23:15:20.768Z,8.63
2022-11-27T23:17:47.966Z,8.75
2022-11-27T23:20:16.542Z,8.30
2022-11-27T23:22:44.157Z,8.57
2022-11-27T23:25:11.347Z,9.03
2022-11-27T23:27:39.832Z,7.78
2022-11-27T23:30:08.557Z,8.55
2022-11-27T23:32:35.806Z,8.55
2022-11-27T23:35:03.147Z,8.23
2022-11-27T23:37:31.855Z,8.80
2022-11-27T23:39:59.032Z,6.72
2022-11-27T23:42:26.359Z,8.02
2022-11-27T23:44:53.553Z,9.10
2022-11-27T23:47:20.768Z,8.35
2022-11-27T23:49:47.950Z,8.87
2022-11-27T23:52:17.247Z,8.55
2022-11-27T23:54:45.995Z,8.63
2022-11-27T23:57:13.178Z,9.30
2022-11-27T23:59:40.372Z,9.88
